Time;durP1;ratioP1;P1;durP2;ratioP2;P2;SDS_P1;SDS_P2;PMS_P1;PMS_P2;Temp;Humidity;BMP_temperature;BMP_pressure;BME280_temperature;BME280_humidity;BME280_pressure;Samples;Min_cycle;Max_cycle;Signal;HPM_P1;HPM_P2
2024/02/14 00:02:25;;;;;;;8.30;1.40;;;;;;;10.71;85.69;99436.22;4979120;28;20078;-45
2024/02/14 00:04:53;;;;;;;7.10;1.40;;;;;;;10.73;85.43;99431.88;4976458;28;20481;-47
2024/02/14 00:07:20;;;;;;;7.95;1.85;;;;;;;10.73;85.69;99438.78;4978716;28;20050;-50
2024/02/14 00:09:48;;;;;;;8.25;1.30;;;;;;;10.73;86.16;99431.88;4977972;28;20082;-46
2024/02/14 00:12:14;;;;;;;5.75;1.27;;;;;;;10.73;85.69;99434.47;4974586;28;20046;-50
2024/02/14 00:14:42;;;;;;;8.57;1.17;;;;;;;10.72;86.22;99437.94;4978993;28;20054;-47
2024/02/14 00:17:10;;;;;;;10.93;1.27;;;;;;;10.69;85.56;99427.63;4971840;28;20047;-49
2024/02/14 00:19:37;;;;;;;8.07;0.90;;;;;;;10.69;85.44;99427.63;4978296;28;20062;-47
2024/02/14 00:22:04;;;;;;;8.75;0.90;;;;;;;10.66;85.95;99428.53;4978419;28;20067;-48
2024/02/14 00:24:31;;;;;;;10.32;1.17;;;;;;;10.67;85.83;99431.97;4979386;28;20050;-47
2024/02/14 00:27:00;;;;;;;12.93;3.13;;;;;;;10.63;85.90;99438.91;4978233;28;20463;-48
2024/02/14 00:29:28;;;;;;;13.23;2.55;;;;;;;10.61;84.98;99445.84;4981215;28;21306;-47
2024/02/14 00:31:55;;;;;;;7.43;1.52;;;;;;;10.61;85.34;99442.41;4978434;28;20054;-51
2024/02/14 00:34:22;;;;;;;13.05;1.35;;;;;;;10.60;85.37;99440.72;4984004;28;20049;-48
2024/02/14 00:36:48;;;;;;;8.07;1.10;;;;;;;10.61;85.71;99434.63;4986153;28;20042;-47
2024/02/14 00:39:18;;;;;;;9.13;1.52;;;;;;;10.61;85.27;99439.81;4974089;28;20070;-48
2024/02/14 00:41:47;;;;;;;4.20;1.00;;;;;;;10.60;85.15;99448.47;4974299;28;20046;-47
2024/02/14 00:44:16;;;;;;;4.78;0.98;;;;;;;10.60;85.29;99448.47;4977794;28;20054;-50
2024/02/14 00:46:43;;;;;;;8.70;1.55;;;;;;;10.58;85.35;99448.50;4980874;28;20046;-50
2024/02/14 00:49:11;;;;;;;10.20;2.90;;;;;;;10.59;84.87;99441.56;4975379;28;20055;-48
2024/02/14 00:51:39;;;;;;;4.75;0.90;;;;;;;10.59;84.79;99445.03;4978809;28;20054;-48
2024/02/14 00:54:07;;;;;;;5.30;0.88;;;;;;;10.57;85.57;99448.50;4972715;28;20053;-48
2024/02/14 00:56:34;;;;;;;10.82;1.35;;;;;;;10.58;86.06;99455.38;4975868;28;20058;-47
2024/02/14 00:59:01;;;;;;;9.05;3.40;;;;;;;10.54;84.75;99444.22;4976358;28;20081;-45
2024/02/14 01:01:28;;;;;;;6.90;1.15;;;;;;;10.58;84.96;99450.22;4974729;28;20051;-46
2024/02/14 01:03:54;;;;;;;6.13;1.05;;;;;;;10.59;85.92;99452.78;4977011;28;20047;-48
2024/02/14 01:06:21;;;;;;;9.90;1.20;;;;;;;10.59;85.49;99451.91;4976217;28;20129;-46
2024/02/14 01:08:48;;;;;;;14.55;0.88;;;;;;;10.61;85.71;99455.34;4976430;28;20053;-46
2024/02/14 01:11:15;;;;;;;3.63;0.80;;;;;;;10.63;85.05;99453.59;4973379;28;20529;-47
2024/02/14 01:13:44;;;;;;;5.82;0.90;;;;;;;10.64;86.00;99456.16;4981115;28;20055;-45
2024/02/14 01:16:11;;;;;;;6.22;0.90;;;;;;;10.65;85.11;99457.03;4984823;28;20608;-50
2024/02/14 01:18:37;;;;;;;5.53;2.55;;;;;;;10.67;85.84;99460.44;4976836;28;20895;-45
2024/02/14 01:21:05;;;;;;;5.20;0.93;;;;;;;10.69;85.46;99461.28;4980863;28;20132;-46
2024/02/14 01:23:33;;;;;;;4.35;0.80;;;;;;;10.70;85.10;99456.97;4971011;28;20050;-48
2024/02/14 01:26:01;;;;;;;4.20;0.85;;;;;;;10.73;85.66;99457.78;4976038;28;20073;-47
2024/02/14 01:28:28;;;;;;;3.85;0.75;;;;;;;10.76;85.51;99457.75;4975735;28;20058;-45
2024/02/14 01:30:56;;;;;;;4.60;0.43;;;;;;;10.77;85.87;99456.88;4970238;28;20038;-48
2024/02/14 01:33:23;;;;;;;5.82;1.23;;;;;;;10.76;85.99;99452.56;4977738;28;20081;-47
2024/02/14 01:35:50;;;;;;;6.50;1.02;;;;;;;10.79;85.30;99449.94;4979164;28;20156;-53
2024/02/14 01:38:17;;;;;;;4.45;0.95;;;;;;;10.79;85.15;99460.31;4980676;28;20054;-48
2024/02/14 01:40:44;;;;;;;3.78;0.90;;;;;;;10.82;86.28;99453.34;4980613;28;20497;-46
2024/02/14 01:43:11;;;;;;;5.22;2.25;;;;;;;10.82;85.67;99466.31;4979169;28;20589;-48
2024/02/14 01:45:39;;;;;;;2.53;2.10;;;;;;;10.84;85.92;99459.38;4976958;28;20038;-48
2024/02/14 01:48:06;;;;;;;5.05;0.85;;;;;;;10.84;85.28;99451.63;4974328;28;20050;-47
2024/02/14 01:50:35;;;;;;;3.40;0.50;;;;;;;10.86;85.19;99455.03;4977521;28;20047;-49
2024/02/14 01:53:03;;;;;;;2.13;0.40;;;;;;;10.87;85.96;99454.13;4986153;28;20046;-48
2024/02/14 01:55:32;;;;;;;3.95;1.00;;;;;;;10.89;84.85;99452.41;4980444;28;20050;-49
2024/02/14 01:57:58;;;;;;;8.02;0.90;;;;;;;10.88;85.98;99448.09;4981217;28;20054;-53
2024/02/14 02:00:25;;;;;;;5.43;0.60;;;;;;;10.89;85.98;99448.09;4972839;28;20051;-47
2024/02/14 02:02:52;;;;;;;4.00;0.63;;;;;;;10.87;85.56;99446.38;4977265;28;24206;-46
2024/02/14 02:05:22;;;;;;;6.50;0.85;;;;;;;10.87;85.54;99443.78;4975997;28;20066;-47
2024/02/14 02:07:49;;;;;;;6.07;1.30;;;;;;;10.89;85.61;99439.44;4973225;28;20140;-49
2024/02/14 02:10:16;;;;;;;4.25;0.50;;;;;;;10.85;86.56;99437.78;4972872;28;20051;-48
2024/02/14 02:12:43;;;;;;;2.90;0.63;;;;;;;10.89;85.42;99452.41;4982489;28;20051;-49
2024/02/14 02:15:12;;;;;;;6.70;0.63;;;;;;;10.89;85.19;99444.63;4981276;28;20050;-46
2024/02/14 02:17:39;;;;;;;6.72;0.98;;;;;;;10.87;86.24;99443.78;4985304;28;20486;-47
2024/02/14 02:20:11;;;;;;;5.60;0.80;;;;;;;10.86;85.64;99444.66;4976290;28;20054;-47
2024/02/14 02:22:44;;;;;;;3.42;1.15;;;;;;;10.82;85.87;99446.47;4982816;28;20110;-46
2024/02/14 02:25:11;;;;;;;5.28;0.93;;;;;;;10.85;86.19;99446.41;4972223;28;20050;-49
2024/02/14 02:27:38;;;;;;;3.40;0.60;;;;;;;10.79;85.81;99442.19;4985525;28;20050;-48
2024/02/14 02:30:10;;;;;;;7.72;0.63;;;;;;;10.76;86.26;99438.75;4982579;28;20057;-47
2024/02/14 02:32:37;;;;;;;7.93;0.93;;;;;;;10.75;86.86;99437.03;4975206;28;20076;-48
2024/02/14 02:35:04;;;;;;;3.40;0.68;;;;;;;10.71;85.81;99432.78;4982008;28;20538;-49
2024/02/14 02:37:31;;;;;;;5.40;1.25;;;;;;;10.74;86.72;99441.38;4983013;28;20061;-46
2024/02/14 02:39:58;;;;;;;4.50;1.23;;;;;;;10.73;85.88;99429.28;4975284;28;20646;-47
2024/02/14 02:42:25;;;;;;;1.38;0.45;;;;;;;10.66;87.47;99428.53;4975507;28;20081;-52
2024/02/14 02:44:52;;;;;;;1.80;1.27;;;;;;;10.71;86.46;99431.03;4976828;28;20439;-48
2024/02/14 02:47:18;;;;;;;2.58;0.82;;;;;;;10.72;86.72;99432.78;4975075;28;20617;-47
2024/02/14 02:49:45;;;;;;;2.05;0.70;;;;;;;10.72;86.27;99430.19;4981335;28;20050;-46
2024/02/14 02:52:12;;;;;;;4.82;0.50;;;;;;;10.75;87.31;99431.88;4975726;28;20054;-48
2024/02/14 02:54:40;;;;;;;7.25;1.17;;;;;;;10.76;86.78;99444.81;4984413;28;20076;-47
2024/02/14 02:57:08;;;;;;;4.18;1.02;;;;;;;10.74;87.60;99446.53;4979272;28;20629;-45
2024/02/14 02:59:36;;;;;;;6.35;1.25;;;;;;;10.77;86.01;99446.50;4979610;28;20158;-46
2024/02/14 03:02:03;;;;;;;6.10;0.90;;;;;;;10.80;86.05;99443.88;4983401;28;20073;-45
2024/02/14 03:04:31;;;;;;;5.38;1.27;;;;;;;10.83;86.31;99439.53;4979768;28;20054;-47
2024/02/14 03:07:17;;;;;;;4.95;0.98;;;;;;;10.83;86.31;99435.22;4978602;28;20051;-51
2024/02/14 03:09:44;;;;;;;1.38;0.60;;;;;;;10.74;87.22;99419.81;4980093;28;20047;-48
2024/02/14 03:12:11;;;;;;;4.10;0.85;;;;;;;10.77;86.32;99430.97;4976795;28;20042;-47
2024/02/14 03:14:38;;;;;;;4.18;1.30;;;;;;;10.76;87.19;99429.25;4974346;28;20050;-51
2024/02/14 03:17:09;;;;;;;10.00;1.25;;;;;;;10.83;87.56;99436.94;4979540;28;20043;-45
2024/02/14 03:19:38;;;;;;;3.35;1.17;;;;;;;10.78;87.27;99437.84;4973060;28;20047;-48
2024/02/14 03:22:08;;;;;;;8.05;1.08;;;;;;;10.79;87.50;99436.13;4981729;28;20060;-45
2024/02/14 03:24:36;;;;;;;;;;;;;;;10.74;87.35;99435.34;4985153;28;20046;-47
2024/02/14 03:27:05;;;;;;;6.03;0.85;;;;;;;10.78;87.45;99443.03;4978813;28;20054;-47
2024/02/14 03:29:35;;;;;;;6.50;1.00;;;;;;;10.82;86.73;99433.50;4979254;28;20046;-47
2024/02/14 03:32:04;;;;;;;6.60;0.93;;;;;;;10.85;87.10;99423.09;4971559;28;20050;-47
2024/02/14 03:34:35;;;;;;;3.42;1.05;;;;;;;10.87;86.41;99436.00;4970764;28;20054;-47
2024/02/14 03:37:02;;;;;;;6.03;1.20;;;;;;;10.90;86.13;99442.03;4982311;28;20157;-47
2024/02/14 03:39:31;;;;;;;5.10;0.95;;;;;;;10.90;87.51;99430.78;4980903;28;20054;-48
2024/02/14 03:42:00;;;;;;;7.82;1.05;;;;;;;10.93;86.91;99435.94;4976721;28;20050;-50
2024/02/14 03:44:28;;;;;;;3.95;0.98;;;;;;;10.93;87.19;99430.75;4977605;28;20091;-54
2024/02/14 03:46:54;;;;;;;4.45;1.33;;;;;;;10.95;86.81;99439.38;4983341;28;20050;-51
2024/02/14 03:49:21;;;;;;;9.88;1.48;;;;;;;10.94;86.16;99442.81;4978650;28;20135;-51
2024/02/14 03:51:52;;;;;;;4.00;1.17;;;;;;;10.94;87.26;99437.63;4985825;28;20047;-47
2024/02/14 03:54:19;;;;;;;8.38;1.50;;;;;;;10.97;87.49;99440.19;4981942;28;20042;-49
2024/02/14 03:56:47;;;;;;;4.18;1.55;;;;;;;10.97;86.66;99426.41;4976367;28;20141;-52
2024/02/14 03:59:14;;;;;;;7.03;1.48;;;;;;;10.96;86.45;99428.13;4981689;28;20133;-48
2024/02/14 04:01:45;;;;;;;9.80;1.40;;;;;;;10.98;86.97;99428.09;4977607;28;20050;-47
2024/02/14 04:04:12;;;;;;;5.68;0.80;;;;;;;11.00;87.11;99434.97;4983871;28;20053;-45
2024/02/14 04:06:39;;;;;;;6.47;1.27;;;;;;;11.00;86.12;99437.56;4974282;28;20057;-49
2024/02/14 04:09:06;;;;;;;6.32;0.70;;;;;;;11.03;86.19;99432.34;4978152;28;20054;-47
2024/02/14 04:11:33;;;;;;;5.07;2.88;;;;;;;11.03;86.06;99431.47;4981243;28;20468;-49
2024/02/14 04:13:59;;;;;;;4.80;0.77;;;;;;;11.06;86.21;99431.44;4981693;28;20039;-49
2024/02/14 04:16:26;;;;;;;2.58;0.90;;;;;;;11.04;86.32;99428.88;4975354;28;20199;-53
2024/02/14 04:18:54;;;;;;;7.60;1.02;;;;;;;11.08;85.92;99421.06;4979222;28;20093;-50
2024/02/14 04:21:21;;;;;;;4.53;1.23;;;;;;;11.04;85.98;99418.50;4971199;28;20053;-48
2024/02/14 04:23:48;;;;;;;3.05;0.70;;;;;;;11.04;87.08;99418.50;4979053;28;20053;-49
2024/02/14 04:26:22;;;;;;;1.17;0.90;;;;;;;10.97;87.26;99416.88;4976497;28;20401;-49
2024/02/14 04:28:49;;;;;;;4.28;0.80;;;;;;;11.00;87.28;99416.84;4980418;28;20057;-48
2024/02/14 04:31:17;;;;;;;1.23;0.40;;;;;;;11.03;85.91;99421.97;4980665;28;20545;-47
2024/02/14 04:33:52;;;;;;;5.25;0.60;;;;;;;11.02;87.05;99433.19;4984279;28;20050;-48
2024/02/14 04:36:20;;;;;;;3.70;0.70;;;;;;;11.03;86.44;99423.69;4980340;28;20054;-49
2024/02/14 04:38:47;;;;;;;3.05;0.45;;;;;;;11.02;86.18;99422.84;4978920;28;20051;-48
2024/02/14 04:41:14;;;;;;;2.60;1.02;;;;;;;11.03;86.61;99424.56;4974808;28;20049;-49
2024/02/14 04:43:41;;;;;;;2.40;0.30;;;;;;;10.99;87.06;99420.31;4973348;28;20050;-46
2024/02/14 04:46:08;;;;;;;3.65;0.43;;;;;;;11.00;87.12;99409.06;4980432;28;20062;-47
2024/02/14 04:48:36;;;;;;;1.55;0.30;;;;;;;10.99;86.23;99425.50;4976942;28;20050;-47
2024/02/14 04:51:04;;;;;;;8.18;0.47;;;;;;;10.99;86.88;99425.50;4983625;28;20111;-46
2024/02/14 04:53:31;;;;;;;2.67;0.85;;;;;;;10.98;86.74;99426.34;4972012;28;20583;-46
2024/02/14 04:55:58;;;;;;;3.75;1.92;;;;;;;10.99;85.67;99432.41;4972093;28;20054;-49
2024/02/14 04:58:26;;;;;;;2.47;0.70;;;;;;;11.01;85.70;99438.44;4971537;28;20046;-49
2024/02/14 05:00:54;;;;;;;4.10;1.90;;;;;;;11.02;86.28;99427.19;4980684;28;20096;-47
2024/02/14 05:03:23;;;;;;;1.48;0.50;;;;;;;11.03;86.15;99432.34;4974254;28;20786;-46
2024/02/14 05:05:51;;;;;;;4.47;0.52;;;;;;;11.03;86.04;99431.47;4978276;28;20125;-48
2024/02/14 05:08:19;;;;;;;3.92;0.90;;;;;;;11.04;86.75;99426.28;4978614;28;20042;-51
2024/02/14 05:10:45;;;;;;;1.05;0.82;;;;;;;11.02;86.02;99416.81;4980491;28;20403;-44
2024/02/14 05:13:13;;;;;;;1.50;0.43;;;;;;;11.03;87.22;99437.53;4974536;28;20046;-50
2024/02/14 05:15:39;;;;;;;5.72;1.00;;;;;;;11.05;85.89;99440.94;4978025;28;20065;-47
2024/02/14 05:18:06;;;;;;;1.17;0.20;;;;;;;11.06;85.80;99444.41;4973024;28;20058;-46
2024/02/14 05:20:33;;;;;;;2.30;0.55;;;;;;;11.08;85.45;99444.38;4983771;28;20491;-47
2024/02/14 05:23:00;;;;;;;2.95;0.70;;;;;;;11.07;85.68;99455.63;4986620;28;20082;-46
2024/02/14 05:25:29;;;;;;;3.75;1.73;;;;;;;11.09;86.12;99453.84;4980573;28;20448;-44
2024/02/14 05:27:56;;;;;;;3.58;0.88;;;;;;;11.10;86.70;99453.84;4982151;28;20061;-48
2024/02/14 05:30:22;;;;;;;5.05;0.40;;;;;;;11.09;85.84;99459.03;4975094;28;20081;-46
2024/02/14 05:32:51;;;;;;;1.67;0.60;;;;;;;11.14;85.71;99457.22;4975997;28;20070;-47
2024/02/14 05:35:18;;;;;;;2.40;0.55;;;;;;;11.18;86.25;99457.16;4977978;28;20053;-47
2024/02/14 05:37:49;;;;;;;4.25;0.45;;;;;;;11.19;86.79;99452.84;4975487;28;20050;-46
2024/02/14 05:40:16;;;;;;;5.00;0.73;;;;;;;11.21;85.93;99451.06;4974812;28;20073;-46
2024/02/14 05:42:43;;;;;;;3.03;0.25;;;;;;;11.23;85.92;99464.88;4978927;28;20177;-49
2024/02/14 05:45:12;;;;;;;;;;;;;;;11.14;85.98;99465.88;4977963;28;20094;-46
2024/02/14 05:47:39;;;;;;;4.32;0.40;;;;;;;11.22;86.92;99473.56;4975005;28;19930;-47
2024/02/14 05:50:11;;;;;;;3.42;0.90;;;;;;;11.25;86.18;99463.09;4977290;28;20143;-49
2024/02/14 05:52:38;;;;;;;2.17;0.50;;;;;;;11.29;86.81;99466.53;4980806;28;20047;-45
2024/02/14 05:55:05;;;;;;;5.15;1.17;;;;;;;11.29;86.76;99459.59;4976878;28;20050;-47
2024/02/14 05:57:32;;;;;;;2.50;1.85;;;;;;;11.28;86.95;99463.06;4979727;28;20068;-47
2024/02/14 05:59:59;;;;;;;2.47;0.68;;;;;;;11.28;86.12;99463.06;4977450;28;20057;-47
2024/02/14 06:02:27;;;;;;;6.28;0.90;;;;;;;11.31;86.34;99467.34;4979558;28;20068;-48
2024/02/14 06:04:53;;;;;;;5.43;2.67;;;;;;;11.32;86.66;99469.91;4975275;28;20051;-47
2024/02/14 06:07:20;;;;;;;2.10;0.77;;;;;;;11.27;85.98;99469.16;4982613;28;20049;-48
2024/02/14 06:09:48;;;;;;;2.75;0.55;;;;;;;11.31;85.84;99468.22;4979765;28;20141;-47
2024/02/14 06:12:15;;;;;;;2.05;0.20;;;;;;;11.30;87.04;99456.13;4980840;28;20101;-46
2024/02/14 06:14:41;;;;;;;3.38;0.50;;;;;;;11.30;86.24;99465.63;4980368;28;20046;-51
2024/02/14 06:17:09;;;;;;;1.50;0.30;;;;;;;11.35;85.91;99468.19;4975351;28;20050;-52
2024/02/14 06:19:38;;;;;;;3.25;0.60;;;;;;;11.35;87.12;99465.59;4976843;28;20054;-46
2024/02/14 06:22:06;;;;;;;3.53;1.13;;;;;;;11.34;85.80;99448.31;4973310;28;20050;-46
2024/02/14 06:24:33;;;;;;;2.75;0.65;;;;;;;11.34;86.76;99456.09;4980939;28;20053;-48
2024/02/14 06:27:00;;;;;;;2.70;0.50;;;;;;;11.31;86.58;99451.78;4975017;28;20756;-51
2024/02/14 06:29:26;;;;;;;3.08;0.60;;;;;;;11.32;86.85;99459.53;4974931;28;20053;-50
2024/02/14 06:31:53;;;;;;;2.10;0.63;;;;;;;11.31;85.96;99452.66;4975176;28;20100;-47
2024/02/14 06:34:20;;;;;;;4.18;0.95;;;;;;;11.30;86.61;99450.97;4973130;28;20054;-46
2024/02/14 06:36:47;;;;;;;2.08;1.95;;;;;;;11.28;86.67;99457.06;4979301;28;20558;-46
2024/02/14 06:39:14;;;;;;;2.92;0.70;;;;;;;11.31;86.55;99464.75;4973877;28;20069;-48
2024/02/14 06:41:41;;;;;;;3.55;0.55;;;;;;;11.31;87.20;99463.03;4969355;28;20405;-47
2024/02/14 06:44:09;;;;;;;1.50;0.38;;;;;;;11.33;86.58;99468.19;4975964;28;20482;-51
2024/02/14 06:46:37;;;;;;;1.58;0.82;;;;;;;11.32;85.73;99464.72;4977998;28;20327;-49
2024/02/14 06:49:04;;;;;;;1.50;0.50;;;;;;;11.35;86.46;99473.34;4977240;28;20488;-45
2024/02/14 06:51:31;;;;;;;1.08;0.50;;;;;;;11.34;86.57;99482.03;4978573;28;20055;-53
2024/02/14 06:53:58;;;;;;;3.05;1.05;;;;;;;11.32;86.08;99479.44;4972922;28;20050;-50
2024/02/14 06:56:25;;;;;;;2.55;0.40;;;;;;;11.31;86.50;99470.81;4975173;28;20046;-48
2024/02/14 06:58:59;;;;;;;3.63;0.60;;;;;;;11.34;86.75;99476.84;4972846;28;20054;-47
2024/02/14 07:01:26;;;;;;;7.60;0.73;;;;;;;11.31;85.77;99478.59;4976413;28;20645;-47
2024/02/14 07:03:55;;;;;;;4.50;0.73;;;;;;;11.32;86.89;99482.03;4973524;28;20046;-46
2024/02/14 07:06:22;;;;;;;3.00;1.00;;;;;;;11.32;86.11;99480.28;4982352;28;20076;-53
2024/02/14 07:08:49;;;;;;;1.35;0.57;;;;;;;11.32;86.37;99475.09;4987284;28;20050;-47
2024/02/14 07:11:16;;;;;;;1.20;0.60;;;;;;;11.28;86.07;99478.63;4977414;28;20043;-50
2024/02/14 07:13:43;;;;;;;4.95;0.80;;;;;;;11.32;86.96;99490.66;4981337;28;20057;-49
2024/02/14 07:16:10;;;;;;;1.27;0.60;;;;;;;11.36;87.18;99488.03;4976846;28;20138;-48
2024/02/14 07:18:37;;;;;;;1.48;0.32;;;;;;;11.36;86.10;99485.44;4976876;28;20048;-52
2024/02/14 07:21:05;;;;;;;1.27;0.55;;;;;;;11.34;86.60;99487.22;4968854;28;20144;-48
2024/02/14 07:23:33;;;;;;;2.60;0.57;;;;;;;11.30;87.21;99495.03;4977517;28;20078;-50
2024/02/14 07:26:01;;;;;;;1.20;0.40;;;;;;;11.34;87.56;99502.75;4976427;28;20054;-50
2024/02/14 07:28:30;;;;;;;3.17;0.50;;;;;;;11.35;86.96;99499.28;4973619;28;20058;-47
2024/02/14 07:30:56;;;;;;;1.48;0.40;;;;;;;11.36;86.33;99503.59;4974157;28;20055;-46
2024/02/14 07:33:25;;;;;;;8.20;0.82;;;;;;;11.39;85.79;99506.13;4974731;28;20061;-47
2024/02/14 07:35:52;;;;;;;1.20;0.43;;;;;;;11.36;87.06;99501.00;4977147;28;20507;-51
2024/02/14 07:38:19;;;;;;;2.70;0.47;;;;;;;11.37;87.05;99497.50;4972165;28;20055;-47
2024/02/14 07:40:45;;;;;;;1.77;0.40;;;;;;;11.36;86.84;99490.63;4975868;28;20065;-47
2024/02/14 07:43:12;;;;;;;4.05;0.68;;;;;;;11.37;86.39;99487.13;4973552;28;20055;-46
2024/02/14 07:45:40;;;;;;;1.02;0.30;;;;;;;11.34;86.79;99492.41;4971873;28;20046;-46
2024/02/14 07:48:08;;;;;;;1.30;0.55;;;;;;;11.39;87.13;99490.56;4969572;28;20054;-49
2024/02/14 07:50:37;;;;;;;5.65;0.45;;;;;;;11.37;87.48;99493.19;4976005;28;20054;-48
2024/02/14 07:53:04;;;;;;;3.30;0.73;;;;;;;11.39;87.23;99500.94;4970177;28;20050;-48
2024/02/14 07:55:31;;;;;;;4.68;1.05;;;;;;;11.46;87.56;99501.72;4974219;28;20054;-48
2024/02/14 07:57:59;;;;;;;3.30;0.50;;;;;;;11.46;86.88;99515.53;4970804;28;20050;-46
2024/02/14 08:00:26;;;;;;;3.28;0.43;;;;;;;11.50;86.59;99512.03;4971600;28;20137;-48
2024/02/14 08:02:53;;;;;;;5.22;0.70;;;;;;;11.52;87.61;99510.25;4968499;28;20069;-48
2024/02/14 08:05:19;;;;;;;1.65;0.35;;;;;;;11.55;87.45;99511.97;4972708;28;20556;-51
2024/02/14 08:07:46;;;;;;;3.15;0.88;;;;;;;11.55;86.40;99512.78;4974548;28;20051;-51
2024/02/14 08:10:13;;;;;;;5.85;0.80;;;;;;;11.61;87.13;99513.56;4977564;28;20063;-49
2024/02/14 08:12:41;;;;;;;7.00;0.82;;;;;;;11.61;86.53;99511.84;4973339;28;20055;-50
2024/02/14 08:15:08;;;;;;;9.43;0.95;;;;;;;11.61;86.94;99500.59;4972527;28;20039;-49
2024/02/14 08:17:35;;;;;;;4.05;1.05;;;;;;;11.63;86.26;99510.09;4982887;28;20460;-52
2024/02/14 08:20:05;;;;;;;2.45;0.60;;;;;;;11.63;87.16;99506.63;4976566;28;20065;-48
2024/02/14 08:22:32;;;;;;;1.73;0.70;;;;;;;11.68;86.08;99505.69;4973669;28;20054;-50
2024/02/14 08:25:00;;;;;;;3.00;0.60;;;;;;;11.73;86.28;99517.72;4968973;28;20161;-46
2024/02/14 08:27:28;;;;;;;1.27;0.82;;;;;;;11.73;87.21;99520.31;4969926;28;20056;-49
2024/02/14 08:29:55;;;;;;;1.40;0.77;;;;;;;11.74;86.50;99512.50;4978219;28;20504;-46
2024/02/14 08:32:22;;;;;;;2.95;0.43;;;;;;;11.75;87.36;99498.66;4975244;28;20061;-51
2024/02/14 08:34:52;;;;;;;3.85;1.15;;;;;;;11.78;86.76;99492.53;4967277;28;20467;-49
2024/02/14 08:37:19;;;;;;;2.40;0.52;;;;;;;11.82;86.81;99478.63;4978932;28;20611;-46
2024/02/14 08:39:46;;;;;;;4.18;1.30;;;;;;;11.85;86.76;99498.50;4980125;28;20413;-47
2024/02/14 08:42:14;;;;;;;4.60;0.77;;;;;;;11.87;86.81;99501.94;4985320;28;20076;-51
2024/02/14 08:44:41;;;;;;;1.70;0.50;;;;;;;11.88;86.01;99514.00;4991236;28;20053;-48
2024/02/14 08:47:08;;;;;;;2.30;1.02;;;;;;;11.93;86.75;99512.22;4986510;28;20049;-48
2024/02/14 08:49:35;;;;;;;2.08;0.40;;;;;;;11.94;85.99;99513.91;4983558;28;20054;-46
2024/02/14 08:52:02;;;;;;;2.55;0.70;;;;;;;11.98;86.17;99514.72;4976899;28;20050;-48
2024/02/14 08:54:29;;;;;;;1.67;0.38;;;;;;;11.95;86.93;99511.28;4984731;28;20502;-48
2024/02/14 08:56:58;;;;;;;1.50;0.45;;;;;;;11.99;86.95;99519.88;4984405;28;20056;-48
2024/02/14 08:59:26;;;;;;;3.78;0.70;;;;;;;12.05;87.23;99519.78;4985804;28;20073;-49
2024/02/14 09:01:54;;;;;;;1.88;0.60;;;;;;;12.08;85.95;99513.72;4982588;28;20511;-45
2024/02/14 09:04:23;;;;;;;2.88;0.85;;;;;;;12.12;86.38;99517.13;4987010;28;20085;-47
2024/02/14 09:06:50;;;;;;;4.15;0.90;;;;;;;12.13;86.07;99524.84;4991080;28;20050;-50
2024/02/14 09:09:19;;;;;;;1.77;0.80;;;;;;;12.13;86.38;99505.84;4990654;28;20054;-44
2024/02/14 09:11:46;;;;;;;2.47;1.20;;;;;;;12.10;87.41;99508.50;4982875;28;20057;-48
2024/02/14 09:14:13;;;;;;;1.48;0.75;;;;;;;12.17;86.55;99513.56;4986291;28;20050;-46
2024/02/14 09:16:41;;;;;;;0.70;0.50;;;;;;;12.26;86.72;99525.50;4987607;28;20053;-47
2024/02/14 09:19:08;;;;;;;1.75;0.77;;;;;;;12.39;87.11;99520.09;4990482;28;20046;-47
2024/02/14 09:21:36;;;;;;;1.73;0.50;;;;;;;12.73;86.94;99533.28;4986608;28;20085;-45
2024/02/14 09:24:03;;;;;;;1.13;0.50;;;;;;;13.24;86.30;99538.28;4998555;28;20534;-46
2024/02/14 09:26:30;;;;;;;2.00;0.55;;;;;;;13.55;85.08;99540.25;4992713;28;20140;-52
2024/02/14 09:28:58;;;;;;;2.63;1.05;;;;;;;13.73;84.71;99548.50;4990664;28;20418;-50
2024/02/14 09:31:25;;;;;;;1.65;1.13;;;;;;;14.08;83.90;99544.19;5002882;28;20057;-48
2024/02/14 09:34:01;;;;;;;1.20;0.70;;;;;;;14.62;83.86;99544.50;4990374;28;20047;-47
2024/02/14 09:36:28;;;;;;;1.85;0.55;;;;;;;15.20;81.76;99549.88;4988452;28;20046;-50
2024/02/14 09:38:55;;;;;;;1.83;0.60;;;;;;;15.70;81.02;99548.34;4988315;28;20058;-49
2024/02/14 09:41:30;;;;;;;1.08;0.77;;;;;;;15.94;79.88;99541.47;4986544;28;20026;-46
2024/02/14 09:43:57;;;;;;;2.28;0.90;;;;;;;16.02;78.71;99534.28;4978346;28;20046;-47
2024/02/14 09:46:25;;;;;;;0.95;0.82;;;;;;;16.28;78.14;99526.44;4990942;28;20054;-49
2024/02/14 09:48:53;;;;;;;1.05;0.70;;;;;;;16.47;77.25;99523.16;4994981;28;20388;-45
2024/02/14 09:51:21;;;;;;;0.45;0.40;;;;;;;16.40;77.19;99515.56;4987557;28;20054;-45
2024/02/14 09:53:49;;;;;;;0.50;0.50;;;;;;;16.32;77.45;99526.28;4985647;28;20046;-50
2024/02/14 09:56:18;;;;;;;1.65;0.60;;;;;;;16.68;77.51;99527.63;4979555;28;20587;-45
2024/02/14 09:58:50;;;;;;;0.93;0.60;;;;;;;17.16;76.70;99530.25;4981349;28;20659;-44
2024/02/14 10:01:17;;;;;;;0.82;0.63;;;;;;;17.24;74.06;99531.72;4980996;28;20050;-50
2024/02/14 10:03:44;;;;;;;1.38;0.80;;;;;;;17.07;74.35;99538.47;4986227;28;20175;-49
2024/02/14 10:06:11;;;;;;;0.50;0.50;;;;;;;16.93;74.20;99525.88;4985042;28;22305;-50
2024/02/14 10:08:41;;;;;;;0.88;0.70;;;;;;;16.65;74.48;99526.91;4984291;28;20050;-49
2024/02/14 10:11:25;;;;;;;0.90;0.60;;;;;;;16.45;74.97;99521.47;4982256;28;20054;-49
2024/02/14 10:13:57;;;;;;;0.73;0.70;;;;;;;16.38;75.22;99514.75;4985688;28;20054;-47
2024/02/14 10:16:26;;;;;;;0.90;0.60;;;;;;;16.22;74.70;99531.88;4984916;28;20483;-47
2024/02/14 10:18:53;;;;;;;0.60;0.35;;;;;;;16.01;75.44;99537.78;4985513;28;20088;-47
2024/02/14 10:21:21;;;;;;;1.05;0.40;;;;;;;15.80;75.63;99548.00;4987870;28;20057;-48
2024/02/14 10:23:52;;;;;;;3.13;0.60;;;;;;;15.66;75.95;99548.44;4986390;28;20599;-48
2024/02/14 10:26:20;;;;;;;2.42;0.70;;;;;;;15.44;75.95;99557.84;4983820;28;20050;-52
2024/02/14 10:28:47;;;;;;;2.22;0.93;;;;;;;15.27;76.62;99561.84;4981580;28;20504;-47
2024/02/14 10:31:16;;;;;;;0.65;0.50;;;;;;;15.06;76.60;99553.72;4985453;28;20055;-45
2024/02/14 10:33:43;;;;;;;1.42;0.75;;;;;;;14.94;77.38;99554.09;4995337;28;20054;-48
2024/02/14 10:36:12;;;;;;;1.33;0.68;;;;;;;14.85;77.67;99557.81;4992338;28;20056;-50
2024/02/14 10:38:43;;;;;;;0.65;0.40;;;;;;;14.80;77.59;99557.97;4989673;28;20129;-46
2024/02/14 10:41:12;;;;;;;1.17;0.63;;;;;;;14.76;77.75;99557.16;4989290;28;20046;-46
2024/02/14 10:43:44;;;;;;;1.33;0.52;;;;;;;14.83;78.73;99563.06;4981809;28;20043;-48
2024/02/14 10:46:21;;;;;;;3.50;0.73;;;;;;;14.78;78.82;99562.34;4991216;28;20049;-48
2024/02/14 10:48:53;;;;;;;1.20;0.77;;;;;;;14.74;78.85;99568.53;4985851;28;20053;-51
2024/02/14 10:51:21;;;;;;;0.75;0.52;;;;;;;14.75;78.74;99567.63;4991384;28;20073;-46
2024/02/14 10:53:51;;;;;;;1.10;0.73;;;;;;;14.74;78.80;99568.53;4977261;28;20070;-49
2024/02/14 10:56:19;;;;;;;1.95;0.85;;;;;;;14.79;78.78;99577.09;4985935;28;20046;-52
2024/02/14 10:58:49;;;;;;;0.90;0.70;;;;;;;14.76;79.37;99582.38;4986334;28;20129;-44
2024/02/14 11:01:16;;;;;;;1.25;0.52;;;;;;;14.71;78.95;99574.69;4980302;28;20534;-49
2024/02/14 11:03:44;;;;;;;1.90;0.70;;;;;;;14.71;78.80;99569.47;4984449;28;20057;-48
2024/02/14 11:06:16;;;;;;;0.60;0.43;;;;;;;14.73;79.54;99572.03;4986427;28;20130;-48
2024/02/14 11:09:07;;;;;;;0.43;0.30;;;;;;;14.72;79.52;99565.09;4985141;28;20054;-48
2024/02/14 11:11:34;;;;;;;2.10;0.45;;;;;;;14.79;79.25;99571.88;4983369;28;20562;-48
2024/02/14 11:14:03;;;;;;;0.60;0.40;;;;;;;14.73;78.86;99569.44;4984326;28;20050;-48
2024/02/14 11:16:35;;;;;;;2.63;0.88;;;;;;;14.77;78.90;99568.47;4984308;28;20503;-44
2024/02/14 11:21:48;;;;;;;0.95;0.68;;;;;;;14.87;79.59;99571.69;5059298;28;20385;-52
2024/02/14 11:24:16;;;;;;;0.50;0.45;;;;;;;14.86;78.72;99563.00;5000336;28;20046;-48
2024/02/14 11:26:52;;;;;;;1.60;0.55;;;;;;;14.84;78.90;99561.31;5002792;28;20112;-51
2024/02/14 11:29:20;;;;;;;1.77;0.85;;;;;;;14.82;79.16;99561.38;5010595;28;20097;-48
2024/02/14 11:32:00;;;;;;;0.50;0.32;;;;;;;14.89;78.89;99557.69;5009852;28;20084;-49
2024/02/14 11:34:28;;;;;;;;;;;;;;;14.99;79.07;99552.19;5004859;28;20050;-50
2024/02/14 11:36:55;;;;;;;3.17;0.88;;;;;;;15.26;79.50;99554.88;5006918;28;20015;-48
2024/02/14 11:39:22;;;;;;;1.20;0.75;;;;;;;15.45;79.28;99546.50;5001036;28;20046;-47
2024/02/14 11:41:50;;;;;;;1.30;0.65;;;;;;;15.52;78.93;99551.50;5009492;28;20046;-47